createdAt,value
2023-05-13T00:02:04.074Z,68.31
2023-05-13T00:04:34.195Z,68.40
2023-05-13T00:07:04.366Z,68.24
2023-05-13T00:09:37.300Z,68.02
2023-05-13T00:12:08.323Z,68.23
2023-05-13T00:14:38.604Z,68.52
2023-05-13T00:17:09.008Z,69.19
2023-05-13T00:19:39.180Z,69.29
2023-05-13T00:22:09.386Z,69.27
2023-05-13T00:24:42.431Z,68.75
2023-05-13T00:27:12.636Z,69.26
2023-05-13T00:29:42.816Z,69.16
2023-05-13T00:32:13.175Z,69.00
2023-05-13T00:34:43.338Z,69.06
2023-05-13T00:37:14.369Z,68.92
2023-05-13T00:39:47.313Z,67.90
2023-05-13T00:42:17.868Z,68.53
2023-05-13T00:44:48.557Z,69.80
2023-05-13T00:47:20.255Z,69.61
2023-05-13T00:49:50.690Z,69.71
2023-05-13T00:52:21.006Z,69.80
2023-05-13T00:54:53.997Z,69.70
2023-05-13T00:57:24.472Z,69.18
2023-05-13T00:59:55.107Z,68.92
2023-05-13T01:02:29.490Z,68.40
2023-05-13T01:05:12.183Z,68.28
2023-05-13T01:07:47.923Z,68.88
2023-05-13T01:10:27.355Z,68.91
2023-05-13T01:13:01.889Z,69.24
2023-05-13T01:15:32.487Z,69.13
2023-05-13T01:18:08.959Z,69.42
2023-05-13T01:20:41.549Z,69.58
2023-05-13T01:23:14.857Z,69.17
2023-05-13T01:25:45.459Z,69.32
2023-05-13T01:28:16.657Z,69.14
2023-05-13T01:30:51.892Z,69.02
2023-05-13T01:33:22.392Z,68.77
2023-05-13T01:35:52.761Z,68.31
2023-05-13T01:38:26.042Z,68.79
2023-05-13T01:40:59.633Z,68.85
2023-05-13T01:43:34.329Z,68.91
2023-05-13T01:46:15.397Z,68.84
2023-05-13T01:48:45.667Z,68.92
2023-05-13T01:51:16.047Z,68.96
2023-05-13T01:53:50.400Z,69.41
2023-05-13T01:56:22.408Z,69.83
2023-05-13T01:58:52.851Z,69.98
2023-05-13T02:01:23.124Z,70.51
2023-05-13T02:03:54.032Z,70.81
2023-05-13T02:06:24.288Z,70.78
2023-05-13T02:08:57.531Z,70.89
2023-05-13T02:11:27.902Z,71.13
2023-05-13T02:14:00.752Z,70.98
2023-05-13T02:16:30.993Z,71.03
2023-05-13T02:19:01.518Z,71.36
2023-05-13T02:21:32.451Z,71.21
2023-05-13T02:24:05.340Z,71.13
2023-05-13T02:26:35.507Z,71.07
2023-05-13T02:29:05.960Z,71.02
2023-05-13T02:31:37.032Z,71.30
2023-05-13T02:34:07.468Z,71.27
2023-05-13T02:36:37.703Z,71.53
2023-05-13T02:39:12.224Z,71.64
2023-05-13T02:41:42.611Z,72.06
2023-05-13T02:44:12.802Z,72.05
2023-05-13T02:46:44.348Z,72.08
2023-05-13T02:49:14.740Z,72.29
2023-05-13T02:51:45.250Z,72.68
2023-05-13T02:54:18.200Z,72.71
2023-05-13T02:56:48.322Z,72.63
2023-05-13T02:59:18.478Z,72.64
2023-05-13T03:01:49.614Z,72.72
2023-05-13T03:04:21.075Z,72.85
2023-05-13T03:06:53.195Z,72.71
2023-05-13T03:09:26.016Z,73.11
2023-05-13T03:11:56.190Z,73.20
2023-05-13T03:14:26.640Z,73.28
2023-05-13T03:16:57.220Z,73.04
2023-05-13T03:19:27.377Z,73.03
2023-05-13T03:21:57.933Z,73.02
2023-05-13T03:24:30.870Z,72.94
2023-05-13T03:27:01.757Z,72.97
2023-05-13T03:29:32.727Z,73.07
2023-05-13T03:32:03.075Z,73.07
2023-05-13T03:34:33.458Z,72.76
2023-05-13T03:37:03.667Z,73.05
2023-05-13T03:39:37.314Z,73.14
2023-05-13T03:42:07.993Z,73.34
2023-05-13T03:44:39.135Z,73.05
2023-05-13T03:47:09.890Z,72.93
2023-05-13T03:49:41.207Z,72.91
2023-05-13T03:52:11.403Z,72.97
2023-05-13T03:54:44.157Z,72.65
2023-05-13T03:57:14.297Z,72.28
2023-05-13T03:59:44.417Z,72.47
2023-05-13T04:02:14.622Z,72.75
2023-05-13T04:04:44.878Z,72.69
2023-05-13T04:07:15.010Z,73.01
2023-05-13T04:09:47.836Z,73.21
2023-05-13T04:12:18.421Z,73.72
2023-05-13T04:14:48.639Z,72.98
2023-05-13T04:17:18.850Z,73.28
2023-05-13T04:19:49.077Z,73.35
2023-05-13T04:22:19.185Z,73.26
2023-05-13T04:24:56.658Z,73.31
2023-05-13T04:27:27.215Z,73.62
2023-05-13T04:30:04.594Z,73.54
2023-05-13T04:32:36.813Z,73.11
2023-05-13T04:35:07.613Z,72.80
2023-05-13T04:37:38.744Z,72.85
2023-05-13T04:40:15.015Z,73.23
2023-05-13T04:42:45.632Z,73.41
2023-05-13T04:45:15.929Z,73.19
2023-05-13T04:47:46.174Z,73.02
2023-05-13T04:50:16.406Z,73.33
2023-05-13T04:52:47.828Z,73.21
2023-05-13T04:55:22.992Z,72.32
2023-05-13T04:57:53.866Z,72.27
2023-05-13T05:00:24.434Z,71.40
2023-05-13T05:02:56.904Z,70.52
2023-05-13T05:05:28.240Z,69.72
2023-05-13T05:07:58.455Z,67.65
2023-05-13T05:10:31.855Z,66.75
2023-05-13T05:13:04.004Z,65.80
2023-05-13T05:15:34.315Z,65.43
2023-05-13T05:18:07.395Z,64.88
2023-05-13T05:20:40.453Z,64.49
2023-05-13T05:23:16.455Z,63.30
2023-05-13T05:25:53.207Z,62.42
2023-05-13T05:28:28.256Z,62.29
2023-05-13T05:30:59.612Z,62.29
2023-05-13T05:33:31.354Z,64.10
2023-05-13T05:36:01.584Z,62.90
2023-05-13T05:38:32.509Z,62.12
2023-05-13T05:41:07.048Z,61.80
2023-05-13T05:43:37.182Z,60.87
2023-05-13T05:46:07.680Z,59.77
2023-05-13T05:48:38.951Z,59.51
2023-05-13T05:51:09.498Z,59.67
2023-05-13T05:53:41.360Z,59.32
2023-05-13T05:56:16.735Z,58.95
2023-05-13T05:58:48.397Z,59.79
2023-05-13T06:01:19.932Z,58.86
2023-05-13T06:03:52.257Z,58.54
2023-05-13T06:06:24.938Z,58.66
2023-05-13T06:08:55.225Z,57.60
2023-05-13T06:11:28.112Z,57.63
2023-05-13T06:13:58.228Z,57.73
2023-05-13T06:16:28.570Z,56.86
2023-05-13T06:18:58.929Z,55.49
2023-05-13T06:21:29.137Z,55.93
2023-05-13T06:23:59.283Z,54.91
2023-05-13T06:26:32.702Z,55.08
2023-05-13T06:29:03.301Z,55.27
2023-05-13T06:31:37.335Z,54.38
2023-05-13T06:34:07.573Z,54.12
2023-05-13T06:36:37.730Z,53.01
2023-05-13T06:39:10.739Z,54.15
2023-05-13T06:41:44.799Z,53.26
2023-05-13T06:44:18.606Z,52.55
2023-05-13T06:46:50.306Z,52.47
2023-05-13T06:49:21.506Z,52.10
2023-05-13T06:51:51.785Z,52.07
2023-05-13T06:54:21.950Z,51.39
2023-05-13T06:56:54.742Z,50.60
2023-05-13T06:59:24.898Z,49.26
2023-05-13T07:01:54.990Z,49.98
2023-05-13T07:04:25.146Z,49.61
2023-05-13T07:06:55.313Z,50.15
2023-05-13T07:09:25.452Z,50.40
2023-05-13T07:11:58.347Z,49.91
2023-05-13T07:14:28.570Z,49.69
2023-05-13T07:16:58.967Z,48.58
2023-05-13T07:19:29.325Z,48.33
2023-05-13T07:21:59.499Z,48.64
2023-05-13T07:24:29.586Z,48.25
2023-05-13T07:27:04.060Z,47.37
2023-05-13T07:29:34.388Z,47.48
2023-05-13T07:32:07.415Z,46.01
2023-05-13T07:34:37.556Z,46.01
2023-05-13T07:37:08.615Z,45.34
2023-05-13T07:39:38.757Z,44.50
2023-05-13T07:42:11.749Z,45.20
2023-05-13T07:44:41.867Z,45.63
2023-05-13T07:47:13.684Z,44.40
2023-05-13T07:49:44.100Z,43.90
2023-05-13T07:52:14.545Z,44.54
2023-05-13T07:54:44.752Z,44.01
2023-05-13T07:57:17.503Z,44.20
2023-05-13T07:59:48.101Z,43.86
2023-05-13T08:02:18.333Z,43.22
2023-05-13T08:04:48.899Z,43.45
2023-05-13T08:07:19.193Z,42.86
2023-05-13T08:09:49.324Z,42.24
2023-05-13T08:12:22.125Z,42.27
2023-05-13T08:14:52.282Z,41.59
2023-05-13T08:17:22.844Z,41.21
2023-05-13T08:19:53.540Z,40.61
2023-05-13T08:22:23.766Z,41.14
2023-05-13T08:24:54.057Z,39.37
2023-05-13T08:27:26.845Z,38.73
2023-05-13T08:29:57.026Z,39.05
2023-05-13T08:32:27.285Z,39.39
2023-05-13T08:34:57.935Z,38.31
2023-05-13T08:37:28.514Z,37.63
2023-05-13T08:40:00.854Z,38.36
2023-05-13T08:42:35.984Z,38.77
2023-05-13T08:45:08.002Z,40.07
2023-05-13T08:47:44.751Z,39.82
2023-05-13T08:50:15.705Z,38.17
2023-05-13T08:52:46.749Z,37.64
2023-05-13T08:55:16.922Z,35.56
2023-05-13T08:57:49.766Z,35.19
2023-05-13T09:00:21.593Z,34.90
2023-05-13T09:02:53.176Z,36.51
2023-05-13T09:05:25.396Z,38.41
2023-05-13T09:07:57.520Z,37.16
2023-05-13T09:10:27.694Z,35.75
2023-05-13T09:13:02.011Z,36.94
2023-05-13T09:15:32.734Z,35.10
2023-05-13T09:18:05.235Z,32.81
2023-05-13T09:20:36.387Z,32.02
2023-05-13T09:23:09.641Z,30.96
2023-05-13T09:25:40.545Z,32.40
2023-05-13T09:28:17.906Z,34.05
2023-05-13T09:30:57.491Z,34.33
2023-05-13T09:33:33.176Z,34.38
2023-05-13T09:36:03.704Z,35.33
2023-05-13T09:38:37.456Z,35.05
2023-05-13T09:41:08.441Z,33.95
2023-05-13T09:43:42.302Z,33.87
2023-05-13T09:46:12.737Z,33.72
2023-05-13T09:48:45.938Z,33.24
2023-05-13T09:51:18.513Z,32.96
2023-05-13T09:53:50.717Z,33.75
2023-05-13T09:56:24.245Z,32.57
2023-05-13T09:58:57.324Z,33.67
2023-05-13T10:01:28.567Z,33.78
2023-05-13T10:03:59.858Z,34.74
2023-05-13T10:06:31.419Z,36.53
2023-05-13T10:09:06.190Z,36.42
2023-05-13T10:11:36.936Z,37.09
2023-05-13T10:14:10.262Z,37.63
2023-05-13T10:16:41.794Z,37.91
2023-05-13T10:19:12.938Z,38.32
2023-05-13T10:21:44.304Z,39.17
2023-05-13T10:24:14.984Z,39.12
2023-05-13T10:26:45.237Z,38.62
2023-05-13T10:29:18.116Z,39.13
2023-05-13T10:31:48.766Z,38.89
2023-05-13T10:34:19.128Z,39.91
2023-05-13T10:37:12.451Z,39.58
2023-05-13T10:40:04.254Z,39.50
2023-05-13T10:42:43.526Z,40.67
2023-05-13T10:45:20.124Z,41.73
2023-05-13T10:47:53.634Z,42.04
2023-05-13T10:50:28.006Z,42.44
2023-05-13T10:53:03.524Z,44.32
2023-05-13T10:55:33.933Z,43.37
2023-05-13T10:58:10.124Z,41.29
2023-05-13T11:00:44.351Z,42.10
2023-05-13T11:03:17.014Z,42.42
2023-05-13T11:05:49.257Z,42.72
2023-05-13T11:08:40.775Z,42.18
2023-05-13T11:11:21.364Z,42.75
2023-05-13T11:13:53.430Z,43.51
2023-05-13T11:16:26.929Z,43.37
2023-05-13T11:18:57.252Z,43.45
2023-05-13T11:21:39.903Z,43.09
2023-05-13T11:24:11.254Z,42.90
2023-05-13T11:26:49.279Z,42.52
2023-05-13T11:29:30.806Z,42.75
2023-05-13T11:32:04.806Z,42.97
2023-05-13T11:34:36.320Z,42.95
2023-05-13T11:37:13.736Z,43.50
2023-05-13T11:39:44.349Z,43.81
2023-05-13T11:42:15.356Z,43.42
2023-05-13T11:44:49.562Z,43.38
2023-05-13T11:47:29.062Z,44.04
2023-05-13T11:49:59.592Z,44.20
2023-05-13T11:52:29.728Z,45.32
2023-05-13T11:55:01.020Z,45.17
2023-05-13T11:57:32.972Z,46.17
2023-05-13T12:00:05.095Z,46.11
2023-05-13T12:02:41.060Z,46.67
2023-05-13T12:05:13.188Z,46.56
2023-05-13T12:07:43.416Z,47.51
2023-05-13T12:10:13.716Z,48.11
2023-05-13T12:12:46.488Z,48.90
2023-05-13T12:15:19.054Z,47.27
2023-05-13T12:17:53.396Z,47.46
2023-05-13T12:20:25.230Z,47.63
2023-05-13T12:22:57.316Z,47.67
2023-05-13T12:25:43.442Z,48.03
2023-05-13T12:28:17.080Z,47.90
2023-05-13T12:30:53.659Z,47.13
2023-05-13T12:33:28.003Z,46.54
2023-05-13T12:36:17.840Z,45.95
2023-05-13T12:39:00.267Z,45.00
2023-05-13T12:41:32.431Z,44.34
2023-05-13T12:44:06.913Z,43.88
2023-05-13T12:46:37.991Z,43.56
2023-05-13T12:49:13.026Z,42.21
2023-05-13T12:51:43.200Z,41.97
2023-05-13T12:54:13.644Z,41.14
2023-05-13T12:56:43.911Z,41.39
2023-05-13T12:59:14.722Z,41.87
2023-05-13T13:01:45.141Z,41.64
2023-05-13T13:04:19.264Z,41.42
2023-05-13T13:06:49.642Z,40.90
2023-05-13T13:09:19.853Z,40.92
2023-05-13T13:11:49.996Z,40.68
2023-05-13T13:14:20.151Z,40.28
2023-05-13T13:16:50.456Z,40.48
2023-05-13T13:19:23.363Z,40.79
2023-05-13T13:21:53.592Z,40.96
2023-05-13T13:24:23.709Z,40.77
2023-05-13T13:26:55.001Z,39.91
2023-05-13T13:29:26.371Z,39.16
2023-05-13T13:31:56.815Z,40.39
2023-05-13T13:34:29.830Z,41.30
2023-05-13T13:37:00.027Z,41.37
2023-05-13T13:39:30.261Z,41.60
2023-05-13T13:42:00.419Z,40.41
2023-05-13T13:44:30.535Z,39.10
2023-05-13T13:47:00.698Z,38.51
2023-05-13T13:49:33.627Z,36.66
2023-05-13T13:52:03.928Z,37.14
2023-05-13T13:54:34.060Z,38.36
2023-05-13T13:57:04.258Z,37.85
2023-05-13T13:59:34.648Z,37.79
2023-05-13T14:02:04.829Z,37.13
2023-05-13T14:04:37.584Z,36.68
2023-05-13T14:07:09.261Z,36.75
2023-05-13T14:09:39.787Z,36.05
2023-05-13T14:12:10.406Z,34.60
2023-05-13T14:14:40.810Z,34.72
2023-05-13T14:17:12.347Z,33.25
2023-05-13T14:19:45.926Z,32.73
2023-05-13T14:22:16.213Z,33.23
2023-05-13T14:24:49.550Z,35.41
2023-05-13T14:27:19.777Z,37.45
2023-05-13T14:29:50.466Z,38.48
2023-05-13T14:32:20.758Z,38.91
2023-05-13T14:34:53.655Z,40.45
2023-05-13T14:37:23.860Z,40.54
2023-05-13T14:39:54.097Z,39.05
2023-05-13T14:42:24.313Z,39.17
2023-05-13T14:44:54.420Z,37.88
2023-05-13T14:47:25.148Z,37.08
2023-05-13T14:49:58.044Z,36.75
2023-05-13T14:52:28.703Z,37.83
2023-05-13T14:54:58.921Z,38.70
2023-05-13T14:57:29.182Z,40.31
2023-05-13T15:00:00.141Z,41.17
2023-05-13T15:02:30.678Z,41.28
2023-05-13T15:05:03.602Z,41.78
2023-05-13T15:07:33.809Z,41.86
2023-05-13T15:10:04.323Z,41.44
2023-05-13T15:12:34.561Z,41.99
2023-05-13T15:15:04.765Z,42.08
2023-05-13T15:17:35.057Z,42.07
2023-05-13T15:20:08.895Z,41.67
2023-05-13T15:22:39.164Z,41.35
2023-05-13T15:25:10.310Z,40.64
2023-05-13T15:27:40.950Z,40.89
2023-05-13T15:30:12.759Z,40.92
2023-05-13T15:32:42.904Z,41.46
2023-05-13T15:35:18.359Z,42.01
2023-05-13T15:37:48.620Z,42.11
2023-05-13T15:40:18.806Z,42.42
2023-05-13T15:42:49.010Z,43.04
2023-05-13T15:45:21.145Z,42.94
2023-05-13T15:47:51.816Z,42.56
2023-05-13T15:50:26.210Z,42.73
2023-05-13T15:52:57.438Z,43.24
2023-05-13T15:55:27.747Z,43.28
2023-05-13T15:57:58.019Z,43.99
2023-05-13T16:00:28.266Z,43.71
2023-05-13T16:02:58.533Z,43.45
2023-05-13T16:05:31.575Z,44.05
2023-05-13T16:08:01.707Z,43.46
2023-05-13T16:10:32.274Z,43.69
2023-05-13T16:13:02.716Z,44.01
2023-05-13T16:15:33.066Z,44.16
2023-05-13T16:18:03.800Z,44.73
2023-05-13T16:20:36.676Z,43.90
2023-05-13T16:23:06.867Z,44.38
2023-05-13T16:25:37.710Z,44.52
2023-05-13T16:28:08.084Z,45.56
2023-05-13T16:30:38.877Z,46.01
2023-05-13T16:33:09.804Z,46.51
2023-05-13T16:35:42.819Z,46.93
2023-05-13T16:38:12.979Z,47.35
2023-05-13T16:40:43.258Z,47.61
2023-05-13T16:43:13.453Z,47.94
2023-05-13T16:45:44.091Z,48.57
2023-05-13T16:48:14.634Z,48.31
2023-05-13T16:50:47.923Z,48.62
2023-05-13T16:53:18.304Z,48.42
2023-05-13T16:55:49.743Z,48.86
2023-05-13T16:58:20.388Z,48.72
2023-05-13T17:00:50.722Z,49.27
2023-05-13T17:03:21.043Z,49.04
2023-05-13T17:05:53.818Z,49.74
2023-05-13T17:08:24.630Z,49.83
2023-05-13T17:10:54.804Z,49.95
2023-05-13T17:13:24.991Z,49.84
2023-05-13T17:15:55.149Z,50.13
2023-05-13T17:18:26.623Z,50.22
2023-05-13T17:21:00.256Z,50.46
2023-05-13T17:23:30.423Z,50.55
2023-05-13T17:26:00.670Z,50.28
2023-05-13T17:28:30.929Z,51.26
2023-05-13T17:31:01.251Z,51.92
2023-05-13T17:33:31.630Z,50.84
2023-05-13T17:36:04.401Z,49.94
2023-05-13T17:38:34.634Z,49.75
2023-05-13T17:41:05.024Z,49.73
2023-05-13T17:43:35.287Z,49.77
2023-05-13T17:46:05.895Z,49.70
2023-05-13T17:48:36.331Z,49.13
2023-05-13T17:51:09.337Z,48.92
2023-05-13T17:53:39.516Z,49.14
2023-05-13T17:56:10.764Z,49.17
2023-05-13T17:58:41.023Z,49.46
2023-05-13T18:01:11.287Z,49.66
2023-05-13T18:03:41.440Z,49.48
2023-05-13T18:06:14.295Z,49.86
2023-05-13T18:08:44.691Z,50.04
2023-05-13T18:11:14.859Z,50.37
2023-05-13T18:13:45.034Z,50.56
2023-05-13T18:16:17.153Z,50.92
2023-05-13T18:18:49.000Z,50.90
2023-05-13T18:21:23.864Z,51.66
2023-05-13T18:23:54.279Z,51.24
2023-05-13T18:26:24.571Z,51.50
2023-05-13T18:28:54.783Z,51.97
2023-05-13T18:31:25.005Z,51.86
2023-05-13T18:33:55.324Z,52.59
2023-05-13T18:36:28.214Z,51.38
2023-05-13T18:38:58.503Z,51.64
2023-05-13T18:41:28.847Z,52.01
2023-05-13T18:43:59.086Z,52.48
2023-05-13T18:46:29.522Z,52.13
2023-05-13T18:49:00.638Z,52.18
2023-05-13T18:51:34.049Z,52.75
2023-05-13T18:54:04.457Z,53.09
2023-05-13T18:56:35.040Z,52.98
2023-05-13T18:59:05.237Z,53.42
2023-05-13T19:01:35.483Z,53.62
2023-05-13T19:04:05.839Z,53.69
2023-05-13T19:06:38.840Z,53.82
2023-05-13T19:09:09.160Z,54.16
2023-05-13T19:11:39.354Z,54.50
2023-05-13T19:14:09.772Z,54.41
2023-05-13T19:16:42.367Z,54.31
2023-05-13T19:19:12.944Z,54.76
2023-05-13T19:21:45.751Z,55.28
2023-05-13T19:24:15.902Z,54.77
2023-05-13T19:26:46.240Z,54.68
2023-05-13T19:29:16.445Z,55.25
2023-05-13T19:31:46.603Z,55.33
2023-05-13T19:34:17.561Z,55.60
2023-05-13T19:36:51.003Z,56.34
2023-05-13T19:39:21.335Z,56.62
2023-05-13T19:41:51.501Z,56.27
2023-05-13T19:44:21.686Z,56.08
2023-05-13T19:46:51.860Z,56.07
2023-05-13T19:49:22.235Z,55.57
2023-05-13T19:51:55.898Z,56.60
2023-05-13T19:54:26.164Z,55.63
2023-05-13T19:56:56.493Z,56.68
2023-05-13T19:59:26.888Z,56.57
2023-05-13T20:01:57.322Z,56.40
2023-05-13T20:04:27.504Z,55.78
2023-05-13T20:07:00.708Z,56.43
2023-05-13T20:09:30.861Z,56.29
2023-05-13T20:12:01.589Z,57.48
2023-05-13T20:14:45.549Z,57.92
2023-05-13T20:17:18.404Z,57.89
2023-05-13T20:19:49.369Z,57.44
2023-05-13T20:22:22.629Z,57.51
2023-05-13T20:24:54.560Z,57.57
2023-05-13T20:27:24.753Z,57.66
2023-05-13T20:29:55.947Z,58.39
2023-05-13T20:32:27.670Z,58.04
2023-05-13T20:34:57.849Z,57.92
2023-05-13T20:37:31.377Z,58.32
2023-05-13T20:40:01.596Z,58.10
2023-05-13T20:42:32.150Z,58.32
2023-05-13T20:45:02.412Z,58.86
2023-05-13T20:47:32.652Z,58.58
2023-05-13T20:50:02.933Z,59.12
2023-05-13T20:52:35.786Z,59.15
2023-05-13T20:55:05.914Z,59.42
2023-05-13T20:57:36.065Z,59.92
2023-05-13T21:00:07.496Z,59.92
2023-05-13T21:02:37.677Z,60.76
2023-05-13T21:05:08.991Z,61.04
2023-05-13T21:07:41.759Z,61.32
2023-05-13T21:10:12.634Z,61.71
2023-05-13T21:12:47.960Z,62.12
2023-05-13T21:15:18.480Z,62.85
2023-05-13T21:17:49.239Z,63.14
2023-05-13T21:20:19.662Z,63.38
2023-05-13T21:22:52.561Z,63.52
2023-05-13T21:25:22.932Z,63.90
2023-05-13T21:27:53.244Z,63.97
2023-05-13T21:30:24.104Z,64.18
2023-05-13T21:32:54.859Z,64.21
2023-05-13T21:35:25.267Z,64.66
2023-05-13T21:38:11.011Z,64.86
2023-05-13T21:40:42.392Z,64.99
2023-05-13T21:43:13.447Z,64.83
2023-05-13T21:45:44.112Z,64.89
2023-05-13T21:48:14.673Z,64.90
2023-05-13T21:50:45.026Z,65.17
2023-05-13T21:53:17.916Z,64.93
2023-05-13T21:55:48.082Z,64.79
2023-05-13T21:58:19.416Z,65.14
2023-05-13T22:00:50.425Z,65.69
2023-05-13T22:03:20.938Z,66.03
2023-05-13T22:05:53.786Z,65.66
2023-05-13T22:08:26.556Z,65.45
2023-05-13T22:10:56.799Z,65.20
2023-05-13T22:13:27.313Z,65.35
2023-05-13T22:15:57.673Z,65.60
2023-05-13T22:18:28.014Z,65.68
2023-05-13T22:20:59.719Z,65.16
2023-05-13T22:23:32.510Z,65.56
2023-05-13T22:26:02.875Z,65.78
2023-05-13T22:28:33.021Z,66.28
2023-05-13T22:31:03.308Z,66.40
2023-05-13T22:33:33.619Z,66.32
2023-05-13T22:36:03.812Z,66.46
2023-05-13T22:38:37.293Z,66.75
2023-05-13T22:41:07.743Z,67.25
2023-05-13T22:43:37.950Z,67.27
2023-05-13T22:46:08.346Z,67.25
2023-05-13T22:48:38.517Z,66.49
2023-05-13T22:51:08.715Z,67.06
2023-05-13T22:53:41.575Z,67.06
2023-05-13T22:56:11.895Z,67.13
2023-05-13T22:58:42.008Z,67.01
2023-05-13T23:01:12.175Z,67.33
2023-05-13T23:03:42.428Z,67.92
2023-05-13T23:06:13.674Z,67.89
2023-05-13T23:08:46.501Z,67.95
2023-05-13T23:11:16.680Z,67.87
2023-05-13T23:13:46.858Z,68.11
2023-05-13T23:16:17.069Z,67.84
2023-05-13T23:18:47.316Z,68.87
2023-05-13T23:21:17.648Z,69.75
2023-05-13T23:23:50.600Z,69.82
2023-05-13T23:26:20.702Z,69.82
2023-05-13T23:28:50.937Z,69.87
2023-05-13T23:31:21.166Z,68.93
2023-05-13T23:33:51.377Z,69.31
2023-05-13T23:36:21.604Z,68.96
2023-05-13T23:38:55.029Z,69.07
2023-05-13T23:41:25.147Z,69.23
2023-05-13T23:43:57.292Z,68.82
2023-05-13T23:46:27.626Z,69.40
2023-05-13T23:49:00.107Z,69.46
2023-05-13T23:51:30.312Z,69.78
2023-05-13T23:54:03.135Z,70.03
2023-05-13T23:56:33.312Z,70.08
2023-05-13T23:59:03.556Z,69.98
